Time;durP1;ratioP1;P1;durP2;ratioP2;P2;SDS_P1;SDS_P2;PMS_P1;PMS_P2;Temp;Humidity;BMP_temperature;BMP_pressure;BME280_temperature;BME280_humidity;BME280_pressure;Samples;Min_cycle;Max_cycle;Signal;HPM_P1;HPM_P2
2023/05/12 00:00:09;;;;;;;15.05;13.60;;;22.50;85.10;;;;;;6277241;27;88951;-71
2023/05/12 00:03:11;;;;;;;14.93;13.35;;;22.50;85.10;;;;;;6284732;27;88972;-70
2023/05/12 00:06:13;;;;;;;14.90;13.38;;;22.50;85.10;;;;;;6274055;27;89151;-70
2023/05/12 00:09:15;;;;;;;15.13;13.32;;;22.50;85.10;;;;;;6279400;27;89057;-70
2023/05/12 00:12:18;;;;;;;15.18;13.65;;;22.50;85.00;;;;;;6269963;27;89289;-69
2023/05/12 00:15:20;;;;;;;14.35;12.95;;;22.50;85.10;;;;;;6282465;27;88429;-69
2023/05/12 00:18:22;;;;;;;14.60;13.20;;;22.50;85.10;;;;;;6269806;27;87969;-69
2023/05/12 00:21:24;;;;;;;14.95;13.43;;;22.50;85.20;;;;;;6264966;27;89479;-70
2023/05/12 00:24:26;;;;;;;15.27;13.65;;;22.40;85.00;;;;;;6284734;27;90402;-69
2023/05/12 00:27:30;;;;;;;14.57;13.07;;;22.40;85.20;;;;;;6267782;27;87783;-70
2023/05/12 00:30:32;;;;;;;14.75;13.35;;;22.40;85.00;;;;;;6279411;27;89041;-69
2023/05/12 00:33:34;;;;;;;15.15;13.65;;;22.40;84.90;;;;;;6295994;27;89035;-70
2023/05/12 00:36:36;;;;;;;14.52;13.02;;;22.50;84.90;;;;;;6284238;27;89099;-69
2023/05/12 00:39:38;;;;;;;14.57;13.13;;;22.40;84.90;;;;;;6291633;27;89106;-70
2023/05/12 00:42:42;;;;;;;15.15;13.65;;;22.50;84.60;;;;;;6283369;27;89270;-69
2023/05/12 00:45:44;;;;;;;14.55;13.13;;;22.40;84.60;;;;;;6274380;27;88382;-68
2023/05/12 00:48:46;;;;;;;14.18;12.68;;;22.50;84.70;;;;;;6280366;27;89090;-69
2023/05/12 00:51:48;;;;;;;14.60;13.10;;;22.40;84.50;;;;;;6284831;27;89083;-72
2023/05/12 00:54:50;;;;;;;14.02;12.57;;;22.40;84.70;;;;;;6269207;27;90193;-71
2023/05/12 00:57:54;;;;;;;14.82;13.32;;;22.40;84.60;;;;;;6263051;27;89612;-71
2023/05/12 01:00:55;;;;;;;14.57;13.02;;;22.40;84.70;;;;;;6274232;27;89582;-71
2023/05/12 01:03:57;;;;;;;14.40;12.95;;;22.40;84.80;;;;;;6261393;27;89097;-69
2023/05/12 01:07:06;;;;;;;14.02;12.57;;;22.40;84.70;;;;;;6270513;27;89022;-69
2023/05/12 01:10:18;;;;;;;14.77;13.27;;;22.40;84.70;;;;;;6291110;27;89040;-69
2023/05/12 01:13:21;;;;;;;13.52;12.18;;;22.40;84.60;;;;;;6284679;27;89100;-69
2023/05/12 01:16:28;;;;;;;14.35;12.95;;;22.40;84.50;;;;;;6290019;27;88382;-69
2023/05/12 01:19:40;;;;;;;13.70;12.38;;;22.40;84.50;;;;;;6283057;27;89013;-69
2023/05/12 01:22:43;;;;;;;14.38;12.88;;;22.40;84.50;;;;;;6285069;27;88888;-69
2023/05/12 01:25:47;;;;;;;13.57;12.30;;;22.40;84.50;;;;;;6266113;27;88879;-69
2023/05/12 01:28:51;;;;;;;13.35;12.10;;;22.40;84.50;;;;;;6270666;27;88183;-69
2023/05/12 01:31:55;;;;;;;13.10;11.80;;;22.40;84.50;;;;;;6289432;27;89078;-69
2023/05/12 01:34:57;;;;;;;13.75;12.38;;;22.40;84.50;;;;;;6271390;27;89972;-70
2023/05/12 01:37:58;;;;;;;13.77;12.48;;;22.40;84.50;;;;;;6274414;27;89016;-70
2023/05/12 01:41:01;;;;;;;13.45;12.15;;;22.40;84.50;;;;;;6277774;27;89027;-70
2023/05/12 01:44:04;;;;;;;13.85;12.50;;;22.30;84.40;;;;;;6278694;27;89140;-69
2023/05/12 01:47:08;;;;;;;13.02;11.82;;;22.40;84.50;;;;;;6287381;27;88472;-69
2023/05/12 01:50:11;;;;;;;13.38;12.07;;;22.40;84.40;;;;;;6279818;27;89103;-70
2023/05/12 01:53:13;;;;;;;14.63;13.13;;;22.30;84.20;;;;;;6288884;27;89035;-70
2023/05/12 01:56:15;;;;;;;13.15;11.95;;;22.40;84.30;;;;;;6265236;27;89978;-70
2023/05/12 01:59:18;;;;;;;14.20;12.80;;;22.30;84.20;;;;;;6280730;27;88362;-69
2023/05/12 02:02:20;;;;;;;12.93;11.73;;;22.30;84.20;;;;;;6276470;27;89080;-69
2023/05/12 02:05:22;;;;;;;14.05;12.65;;;22.40;84.20;;;;;;6254060;27;87873;-69
2023/05/12 02:08:24;;;;;;;13.40;12.10;;;22.40;84.20;;;;;;6263790;27;87990;-70
2023/05/12 02:11:26;;;;;;;11.52;10.43;;;22.30;84.20;;;;;;6283975;27;89132;-70
2023/05/12 02:14:29;;;;;;;11.02;9.93;;;22.30;84.20;;;;;;6280540;27;88957;-69
2023/05/12 02:17:31;;;;;;;11.82;10.63;;;22.40;83.80;;;;;;6271463;27;88368;-69
2023/05/12 02:20:33;;;;;;;11.57;10.48;;;22.30;83.80;;;;;;6268183;27;89395;-70
2023/05/12 02:23:35;;;;;;;11.77;10.57;;;22.30;83.80;;;;;;6263851;27;89055;-70
2023/05/12 02:26:37;;;;;;;12.13;10.93;;;22.30;83.80;;;;;;6264806;27;89795;-70
2023/05/12 02:29:40;;;;;;;11.57;10.38;;;22.30;83.70;;;;;;6279427;27;89064;-69
2023/05/12 02:32:42;;;;;;;11.75;10.60;;;22.40;84.80;;;;;;6274353;27;89121;-69
2023/05/12 02:35:45;;;;;;;11.52;10.43;;;22.40;83.80;;;;;;6278761;27;89140;-70
2023/05/12 02:38:47;;;;;;;11.45;10.35;;;22.30;83.80;;;;;;6273326;27;88985;-69
2023/05/12 02:41:49;;;;;;;11.95;10.75;;;22.30;83.80;;;;;;6276357;27;89047;-70
2023/05/12 02:44:52;;;;;;;14.27;11.13;;;22.30;83.80;;;;;;6288018;27;89096;-70
2023/05/12 02:47:54;;;;;;;11.32;10.30;;;22.30;83.80;;;;;;6283047;27;89503;-70
2023/05/12 02:50:56;;;;;;;11.35;10.25;;;22.30;84.00;;;;;;6288335;27;89141;-69
2023/05/12 02:53:58;;;;;;;11.40;10.25;;;22.30;83.80;;;;;;6261476;27;89074;-70
2023/05/12 02:57:04;;;;;;;11.55;10.45;;;22.30;84.00;;;;;;6280273;27;89966;-70
2023/05/12 03:00:09;;;;;;;11.75;10.55;;;22.30;83.90;;;;;;6287759;27;88969;-69
2023/05/12 03:03:11;;;;;;;11.52;10.43;;;22.30;83.80;;;;;;6272220;27;89220;-70
2023/05/12 03:06:13;;;;;;;11.68;10.55;;;22.30;83.80;;;;;;6281079;27;89044;-70
2023/05/12 03:09:15;;;;;;;11.07;10.07;;;22.30;83.80;;;;;;6282102;27;89062;-71
2023/05/12 03:12:17;;;;;;;10.90;9.90;;;22.30;83.70;;;;;;6289743;27;87939;-70
2023/05/12 03:15:20;;;;;;;11.02;9.98;;;22.30;83.70;;;;;;6276711;27;89551;-70
2023/05/12 03:18:22;;;;;;;11.05;10.00;;;22.30;83.70;;;;;;6279287;27;88306;-71
2023/05/12 03:21:25;;;;;;;10.73;9.73;;;22.30;83.70;;;;;;6280637;27;88012;-70
2023/05/12 03:24:27;;;;;;;10.30;9.30;;;22.30;83.70;;;;;;6269836;27;89084;-70
2023/05/12 03:27:29;;;;;;;11.45;10.25;;;22.30;83.90;;;;;;6283015;27;90350;-70
2023/05/12 03:30:33;;;;;;;11.13;10.02;;;22.30;83.80;;;;;;6282450;27;88016;-69
2023/05/12 03:33:34;;;;;;;10.30;9.40;;;22.30;83.80;;;;;;6272278;27;87964;-70
2023/05/12 03:36:37;;;;;;;9.57;8.70;;;22.20;83.70;;;;;;6273176;27;87978;-69
2023/05/12 03:39:38;;;;;;;10.20;9.20;;;22.30;83.80;;;;;;6282681;27;89085;-70
2023/05/12 03:42:40;;;;;;;10.35;9.30;;;22.30;83.80;;;;;;6282961;27;89066;-69
2023/05/12 03:45:44;;;;;;;10.07;9.07;;;22.30;83.50;;;;;;6267432;27;89064;-69
2023/05/12 03:48:46;;;;;;;10.40;9.30;;;22.30;83.40;;;;;;6276503;27;88384;-69
2023/05/12 03:51:48;;;;;;;9.60;8.70;;;22.30;83.30;;;;;;6284676;27;88987;-69
2023/05/12 03:54:50;;;;;;;10.10;9.20;;;22.30;84.20;;;;;;6258849;27;89375;-69
2023/05/12 03:57:52;;;;;;;9.40;8.50;;;22.30;83.30;;;;;;6256485;27;90059;-69
2023/05/12 04:00:58;;;;;;;9.27;8.48;;;22.30;83.30;;;;;;6270858;27;89074;-68
2023/05/12 04:04:00;;;;;;;9.68;8.85;;;22.20;83.20;;;;;;6289891;27;89481;-69
2023/05/12 04:07:02;;;;;;;9.20;8.30;;;22.30;83.30;;;;;;6282665;27;89069;-69
2023/05/12 04:10:05;;;;;;;9.60;8.65;;;22.30;83.20;;;;;;6282259;27;89027;-69
2023/05/12 04:13:07;;;;;;;9.60;8.70;;;22.30;83.10;;;;;;6268483;27;88982;-69
2023/05/12 04:16:11;;;;;;;11.48;9.55;;;22.30;83.00;;;;;;6275823;27;88782;-68
2023/05/12 04:19:13;;;;;;;9.32;8.48;;;22.30;83.00;;;;;;6270238;27;87143;-70
2023/05/12 04:22:15;;;;;;;10.15;9.07;;;22.30;82.90;;;;;;6271640;27;89156;-70
2023/05/12 04:25:17;;;;;;;8.98;8.18;;;22.30;82.80;;;;;;6280037;27;89402;-69
2023/05/12 04:28:19;;;;;;;8.63;7.82;;;22.40;82.90;;;;;;6280859;27;88931;-70
2023/05/12 04:31:22;;;;;;;8.88;8.07;;;22.40;82.90;;;;;;6273148;27;89032;-69
2023/05/12 04:34:24;;;;;;;8.80;8.00;;;22.40;82.80;;;;;;6255188;27;89081;-69
2023/05/12 04:37:26;;;;;;;8.77;7.97;;;22.40;82.80;;;;;;6282839;27;89085;-70
2023/05/12 04:40:28;;;;;;;8.50;7.80;;;22.50;82.80;;;;;;6276450;27;89087;-70
2023/05/12 04:43:30;;;;;;;8.50;7.70;;;22.50;82.70;;;;;;6264919;27;88979;-69
2023/05/12 04:46:33;;;;;;;8.73;7.93;;;22.50;82.60;;;;;;6275868;27;89150;-69
2023/05/12 04:49:35;;;;;;;8.00;7.20;;;22.50;82.60;;;;;;6285467;27;88405;-70
2023/05/12 04:52:37;;;;;;;8.02;7.30;;;22.50;82.60;;;;;;6281729;27;89080;-70
2023/05/12 04:55:39;;;;;;;7.65;6.95;;;22.50;82.50;;;;;;6261832;27;89220;-70
2023/05/12 04:58:40;;;;;;;8.98;7.30;;;22.50;82.50;;;;;;6265230;27;90050;-69
2023/05/12 05:01:44;;;;;;;8.20;7.40;;;22.50;82.50;;;;;;6288241;27;89120;-69
2023/05/12 05:04:46;;;;;;;7.43;6.72;;;22.50;82.50;;;;;;6272719;27;89142;-69
2023/05/12 05:07:47;;;;;;;13.27;12.07;;;22.50;82.60;;;;;;6268769;27;89713;-69
2023/05/12 05:10:49;;;;;;;9.43;8.52;;;22.50;83.50;;;;;;6279525;27;87980;-69
2023/05/12 05:13:51;;;;;;;9.38;8.48;;;22.60;83.50;;;;;;6266347;27;89359;-68
2023/05/12 05:16:55;;;;;;;9.15;8.32;;;22.60;83.30;;;;;;6292062;27;89375;-68
2023/05/12 05:19:57;;;;;;;9.00;8.10;;;22.60;83.20;;;;;;6275069;27;88376;-69
2023/05/12 05:22:59;;;;;;;8.30;7.53;;;22.70;83.20;;;;;;6262882;27;89480;-69
2023/05/12 05:26:01;;;;;;;8.77;7.97;;;22.70;83.00;;;;;;6280234;27;89464;-69
2023/05/12 05:29:04;;;;;;;7.95;7.25;;;22.70;83.00;;;;;;6283832;27;89921;-69
2023/05/12 05:32:08;;;;;;;8.27;7.47;;;22.70;83.00;;;;;;6271542;27;87980;-69
2023/05/12 05:35:10;;;;;;;8.05;7.32;;;22.70;83.00;;;;;;6283643;27;89207;-70
2023/05/12 05:38:12;;;;;;;8.60;7.68;;;22.70;83.00;;;;;;6284865;27;88279;-69
2023/05/12 05:41:14;;;;;;;8.00;7.30;;;22.80;83.00;;;;;;6276281;27;88531;-69
2023/05/12 05:44:16;;;;;;;7.50;6.85;;;22.70;82.80;;;;;;6286474;27;89341;-68
2023/05/12 05:47:20;;;;;;;8.00;7.20;;;22.80;82.70;;;;;;6278824;27;89442;-69
2023/05/12 05:50:22;;;;;;;7.90;7.20;;;22.80;82.50;;;;;;6281160;27;88466;-68
2023/05/12 05:53:24;;;;;;;7.45;6.75;;;22.80;82.30;;;;;;6277262;27;89062;-69
2023/05/12 05:56:25;;;;;;;7.50;6.65;;;22.80;82.20;;;;;;6265522;27;89161;-69
2023/05/12 05:59:28;;;;;;;6.93;6.22;;;22.80;82.20;;;;;;6277781;27;88904;-69
2023/05/12 06:02:32;;;;;;;7.13;6.43;;;22.80;82.10;;;;;;6259144;27;88210;-70
2023/05/12 06:05:34;;;;;;;6.93;6.22;;;22.80;82.00;;;;;;6264800;27;89051;-69
2023/05/12 06:08:36;;;;;;;7.30;6.50;;;22.90;82.10;;;;;;6275539;27;89041;-69
2023/05/12 06:11:38;;;;;;;7.45;6.20;;;22.90;82.00;;;;;;6279576;27;89107;-71
2023/05/12 06:14:40;;;;;;;6.68;6.05;;;22.90;82.00;;;;;;6283684;27;89138;-72
2023/05/12 06:17:43;;;;;;;7.25;6.55;;;22.90;82.10;;;;;;6271514;27;89140;-72
2023/05/12 06:20:45;;;;;;;6.45;5.75;;;22.90;82.00;;;;;;6274224;27;88210;-72
2023/05/12 06:23:47;;;;;;;6.75;5.95;;;22.80;82.00;;;;;;6281422;27;89227;-71
2023/05/12 06:26:49;;;;;;;7.10;5.95;;;22.90;82.00;;;;;;6270267;27;89055;-72
2023/05/12 06:29:52;;;;;;;6.82;6.10;;;22.90;82.00;;;;;;6269720;27;90050;-74
2023/05/12 06:32:55;;;;;;;6.80;5.90;;;22.90;81.90;;;;;;6280192;27;89065;-71
2023/05/12 06:35:57;;;;;;;7.22;5.93;;;22.90;82.00;;;;;;6280949;27;89077;-72
2023/05/12 06:38:59;;;;;;;6.25;5.65;;;22.90;81.80;;;;;;6263053;27;89232;-71
2023/05/12 06:42:01;;;;;;;6.35;5.72;;;22.90;81.90;;;;;;6289687;27;89248;-72
2023/05/12 06:45:04;;;;;;;6.65;5.65;;;22.90;81.90;;;;;;6279160;27;89173;-72
2023/05/12 06:48:08;;;;;;;5.97;5.40;;;22.80;81.80;;;;;;6268160;27;89232;-71
2023/05/12 06:51:10;;;;;;;5.88;5.32;;;22.90;81.90;;;;;;6273367;27;88243;-71
2023/05/12 06:54:12;;;;;;;6.13;5.60;;;22.90;82.00;;;;;;6270148;27;89025;-72
2023/05/12 06:57:14;;;;;;;6.00;5.40;;;22.90;82.00;;;;;;6279915;27;88805;-71
2023/05/12 07:00:16;;;;;;;5.65;5.15;;;22.90;82.00;;;;;;6290721;27;89998;-72
2023/05/12 07:03:20;;;;;;;5.63;5.13;;;22.90;82.00;;;;;;6275172;27;87995;-72
2023/05/12 07:06:22;;;;;;;6.05;5.47;;;22.90;82.00;;;;;;6287483;27;89140;-72
2023/05/12 07:09:24;;;;;;;6.18;5.47;;;22.90;81.90;;;;;;6284158;27;87875;-72
2023/05/12 07:12:26;;;;;;;6.35;5.45;;;23.00;82.80;;;;;;6278805;27;87784;-71
2023/05/12 07:15:28;;;;;;;6.13;5.15;;;23.00;82.00;;;;;;6273475;27;91216;-72
2023/05/12 07:18:31;;;;;;;5.97;5.38;;;23.00;82.00;;;;;;6271180;27;89639;-72
2023/05/12 07:21:33;;;;;;;6.45;5.30;;;22.90;82.00;;;;;;6285802;27;88772;-72
2023/05/12 07:24:37;;;;;;;5.40;4.90;;;23.00;82.00;;;;;;6281284;27;90657;-71
2023/05/12 07:27:39;;;;;;;5.90;5.30;;;23.00;82.10;;;;;;6277708;27;89197;-72
2023/05/12 07:30:41;;;;;;;5.55;5.05;;;22.90;82.00;;;;;;6275555;27;90059;-71
2023/05/12 07:33:45;;;;;;;6.13;5.35;;;23.00;82.00;;;;;;6274713;27;89078;-73
2023/05/12 07:36:47;;;;;;;6.60;5.68;;;23.00;82.00;;;;;;6280491;27;88001;-72
2023/05/12 07:39:49;;;;;;;5.68;5.05;;;23.00;82.00;;;;;;6271174;27;88962;-71
2023/05/12 07:42:51;;;;;;;5.13;4.63;;;23.00;81.90;;;;;;6275422;27;89120;-71
2023/05/12 07:45:54;;;;;;;5.13;4.63;;;23.00;81.90;;;;;;6274482;27;89087;-73
2023/05/12 07:48:58;;;;;;;6.80;5.20;;;23.00;81.80;;;;;;6272667;27;89089;-72
2023/05/12 07:52:00;;;;;;;5.60;5.00;;;23.00;81.80;;;;;;6275757;27;88309;-72
2023/05/12 07:55:02;;;;;;;5.13;4.63;;;23.00;81.80;;;;;;6282795;27;89097;-71
2023/05/12 07:58:04;;;;;;;5.07;4.57;;;23.00;81.80;;;;;;6271557;27;89439;-71
2023/05/12 08:01:08;;;;;;;4.90;4.40;;;23.00;81.80;;;;;;6259487;27;90219;-72
2023/05/12 08:04:11;;;;;;;5.07;4.55;;;23.00;81.70;;;;;;6277053;27;87969;-72
2023/05/12 08:07:14;;;;;;;5.35;4.88;;;23.00;81.80;;;;;;6283785;27;89059;-71
2023/05/12 08:10:17;;;;;;;4.97;4.45;;;23.00;81.70;;;;;;6277820;27;89009;-72
2023/05/12 08:13:19;;;;;;;4.80;4.40;;;23.00;81.70;;;;;;6291738;27;89311;-72
2023/05/12 08:16:21;;;;;;;4.53;4.13;;;23.00;81.60;;;;;;6263691;27;89058;-72
2023/05/12 08:19:24;;;;;;;5.70;4.60;;;23.00;81.60;;;;;;6261048;27;89089;-72
2023/05/12 08:22:26;;;;;;;4.50;4.10;;;23.00;81.60;;;;;;6263159;27;88335;-72
2023/05/12 08:25:29;;;;;;;5.28;4.78;;;23.00;81.60;;;;;;6269139;27;89112;-72
2023/05/12 08:28:31;;;;;;;4.82;4.43;;;23.00;81.60;;;;;;6260510;27;89082;-71
2023/05/12 08:31:33;;;;;;;4.85;4.30;;;23.00;81.60;;;;;;6256957;27;90324;-71
2023/05/12 08:34:36;;;;;;;4.30;3.90;;;23.00;81.60;;;;;;6268860;27;87947;-72
2023/05/12 08:37:38;;;;;;;4.38;3.97;;;23.00;81.60;;;;;;6267747;27;89621;-72
2023/05/12 08:40:47;;;;;;;4.70;4.20;;;23.00;81.60;;;;;;6276807;27;89080;-72
2023/05/12 08:43:51;;;;;;;4.38;3.97;;;23.00;81.50;;;;;;6289286;27;89817;-71
2023/05/12 08:46:56;;;;;;;4.47;4.07;;;23.00;81.60;;;;;;6280140;27;89163;-71
2023/05/12 08:50:02;;;;;;;4.22;3.90;;;23.00;81.50;;;;;;6279497;27;89050;-71
2023/05/12 08:53:07;;;;;;;4.03;3.63;;;23.00;81.50;;;;;;6279886;27;87233;-71
2023/05/12 08:56:11;;;;;;;3.88;3.53;;;23.10;81.50;;;;;;6269539;27;89221;-71
2023/05/12 08:59:13;;;;;;;4.20;3.83;;;23.10;81.50;;;;;;6258926;27;89108;-72
2023/05/12 09:02:18;;;;;;;3.83;3.53;;;23.10;81.50;;;;;;6264019;27;90295;-73
2023/05/12 09:05:21;;;;;;;4.35;3.60;;;23.10;81.50;;;;;;6267728;27;88889;-72
2023/05/12 09:08:24;;;;;;;4.78;4.07;;;23.10;81.40;;;;;;6278550;27;89074;-71
2023/05/12 09:11:26;;;;;;;4.75;4.00;;;23.10;81.50;;;;;;6279496;27;89280;-72
2023/05/12 09:14:31;;;;;;;5.25;4.18;;;23.10;82.30;;;;;;6271896;27;89082;-71
2023/05/12 09:17:33;;;;;;;4.78;3.80;;;23.10;81.40;;;;;;6280550;27;87794;-71
2023/05/12 09:20:36;;;;;;;4.07;3.67;;;23.10;81.40;;;;;;6263150;27;89131;-72
2023/05/12 09:23:38;;;;;;;4.03;3.63;;;23.00;81.30;;;;;;6286757;27;87243;-72
2023/05/12 09:26:48;;;;;;;4.30;3.90;;;23.10;81.40;;;;;;6272538;27;88305;-73
2023/05/12 09:29:50;;;;;;;3.97;3.67;;;23.10;81.40;;;;;;6272671;27;89206;-72
2023/05/12 09:32:52;;;;;;;3.85;3.55;;;23.10;81.50;;;;;;6270514;27;91522;-71
2023/05/12 09:35:55;;;;;;;3.88;3.50;;;23.10;81.30;;;;;;6274517;27;89191;-72
2023/05/12 09:39:03;;;;;;;3.53;3.22;;;23.10;81.30;;;;;;6262582;27;89190;-71
2023/05/12 09:42:12;;;;;;;3.97;3.60;;;23.10;81.30;;;;;;6271125;27;89217;-72
2023/05/12 09:45:14;;;;;;;3.55;3.22;;;23.10;81.30;;;;;;6284670;27;89138;-72
2023/05/12 09:48:16;;;;;;;3.92;3.50;;;23.10;82.20;;;;;;6281717;27;87953;-72
2023/05/12 09:51:20;;;;;;;3.42;3.13;;;23.10;81.20;;;;;;6277316;27;88981;-71
2023/05/12 09:54:27;;;;;;;3.85;3.33;;;23.10;81.30;;;;;;6283171;27;88549;-72
2023/05/12 09:57:29;;;;;;;3.97;3.20;;;23.10;81.20;;;;;;6279688;27;89283;-71
2023/05/12 10:00:31;;;;;;;3.85;3.20;;;23.10;81.20;;;;;;6276446;27;88298;-70
2023/05/12 10:03:35;;;;;;;4.40;3.70;;;23.10;81.10;;;;;;6267467;27;90076;-72
2023/05/12 10:06:42;;;;;;;4.55;3.42;;;23.10;81.10;;;;;;6271469;27;89208;-71
2023/05/12 10:09:47;;;;;;;3.42;3.13;;;23.10;81.10;;;;;;6268950;27;87971;-71
2023/05/12 10:12:50;;;;;;;3.60;3.30;;;23.10;81.10;;;;;;6268154;27;89244;-71
2023/05/12 10:15:56;;;;;;;2.95;2.75;;;23.10;81.10;;;;;;6282482;27;88815;-70
2023/05/12 10:18:59;;;;;;;3.50;3.20;;;23.20;81.10;;;;;;6268792;27;89007;-71
2023/05/12 10:22:03;;;;;;;6.05;3.88;;;23.10;81.10;;;;;;6276281;27;89062;-71
2023/05/12 10:25:07;;;;;;;3.35;2.97;;;23.10;81.10;;;;;;6268581;27;88315;-71
2023/05/12 10:28:10;;;;;;;3.30;3.00;;;23.10;81.10;;;;;;6266029;27;89061;-72
2023/05/12 10:31:13;;;;;;;3.20;2.90;;;23.10;81.10;;;;;;6279381;27;89171;-71
2023/05/12 10:34:18;;;;;;;3.20;2.90;;;23.20;81.30;;;;;;6267370;27;90169;-71
2023/05/12 10:37:23;;;;;;;3.10;2.80;;;23.20;81.30;;;;;;6253657;27;89105;-71
2023/05/12 10:40:25;;;;;;;112.30;90.63;;;23.20;81.30;;;;;;6271571;27;89102;-71
2023/05/12 10:43:31;;;;;;;467.08;415.60;;;23.20;82.50;;;;;;6268249;27;89147;-69
2023/05/12 10:46:33;;;;;;;192.85;165.73;;;23.20;91.80;;;;;;6281878;27;89117;-70
2023/05/12 10:49:39;;;;;;;120.28;100.70;;;23.30;87.50;;;;;;6271698;27;88969;-70
2023/05/12 10:52:53;;;;;;;76.40;64.72;;;23.40;84.80;;;;;;6264837;27;89371;-70
2023/05/12 10:55:56;;;;;;;69.30;57.47;;;23.40;83.20;;;;;;6260180;27;88370;-66
2023/05/12 10:59:11;;;;;;;65.07;54.22;;;23.50;82.70;;;;;;6255760;27;88222;-68
2023/05/12 11:02:17;;;;;;;55.45;46.72;;;23.50;82.40;;;;;;6253355;27;88206;-68
2023/05/12 11:05:20;;;;;;;54.17;44.60;;;23.40;82.10;;;;;;6258428;27;89945;-68
2023/05/12 11:08:24;;;;;;;54.70;42.50;;;23.50;82.20;;;;;;6264558;27;89049;-69
2023/05/12 11:11:26;;;;;;;47.17;39.45;;;23.40;82.10;;;;;;6280685;27;88021;-69
2023/05/12 11:14:28;;;;;;;44.47;37.05;;;23.40;82.10;;;;;;6272877;27;89630;-68
2023/05/12 11:17:30;;;;;;;44.67;36.05;;;23.40;82.10;;;;;;6282469;27;89202;-68
2023/05/12 11:20:32;;;;;;;39.65;33.00;;;23.40;82.10;;;;;;6274926;27;89085;-69
2023/05/12 11:23:36;;;;;;;36.70;31.38;;;23.40;82.10;;;;;;6275886;27;87940;-68
2023/05/12 11:26:40;;;;;;;34.70;30.38;;;23.30;82.00;;;;;;6260149;27;88586;-68
2023/05/12 11:29:45;;;;;;;34.20;28.45;;;23.40;82.00;;;;;;6279427;27;87973;-68
2023/05/12 11:32:47;;;;;;;33.72;27.77;;;23.40;81.90;;;;;;6279046;27;89003;-68
2023/05/12 11:35:50;;;;;;;32.20;27.08;;;23.40;81.90;;;;;;6274191;27;90476;-68
2023/05/12 11:38:53;;;;;;;30.27;25.73;;;23.40;81.90;;;;;;6260726;27;89044;-68
2023/05/12 11:42:01;;;;;;;28.65;24.15;;;23.40;81.90;;;;;;6273174;27;89395;-68
2023/05/12 11:45:03;;;;;;;28.05;23.42;;;23.40;81.80;;;;;;6267808;27;89038;-68
2023/05/12 11:48:10;;;;;;;24.48;21.77;;;23.40;81.70;;;;;;6264746;27;89007;-68
2023/05/12 11:51:12;;;;;;;26.23;21.52;;;23.30;81.60;;;;;;6270109;27;88327;-68
2023/05/12 11:54:15;;;;;;;22.52;19.95;;;23.30;81.60;;;;;;6281155;27;88915;-68
2023/05/12 11:57:26;;;;;;;23.63;20.08;;;23.40;81.60;;;;;;6263175;27;87344;-68
2023/05/12 12:00:31;;;;;;;23.70;19.02;;;23.40;81.60;;;;;;6269863;27;88987;-67
2023/05/12 12:03:33;;;;;;;20.83;18.15;;;23.30;81.60;;;;;;6271114;27;89080;-68
2023/05/12 12:06:43;;;;;;;21.38;16.63;;;23.30;81.60;;;;;;6268666;27;89986;-67
2023/05/12 12:09:47;;;;;;;20.75;16.15;;;23.40;81.70;;;;;;6275976;27;87991;-67
2023/05/12 12:12:49;;;;;;;18.83;15.20;;;23.30;81.60;;;;;;6268750;27;89060;-67
2023/05/12 12:15:51;;;;;;;18.83;15.15;;;23.30;81.60;;;;;;6289023;27;89097;-67
2023/05/12 12:18:54;;;;;;;16.25;13.43;;;23.30;81.60;;;;;;6269241;27;87957;-68
2023/05/12 12:21:56;;;;;;;16.90;14.18;;;23.40;81.60;;;;;;6281028;27;89142;-68
2023/05/12 12:24:59;;;;;;;15.65;13.05;;;23.30;81.50;;;;;;6286730;27;89086;-67
2023/05/12 12:28:01;;;;;;;16.65;12.77;;;23.30;81.50;;;;;;6262263;27;88306;-68
2023/05/12 12:31:04;;;;;;;16.33;12.75;;;23.40;81.60;;;;;;6266080;27;89116;-67
2023/05/12 12:34:06;;;;;;;13.80;11.88;;;23.40;81.60;;;;;;6261099;27;89207;-67
2023/05/12 12:37:08;;;;;;;14.23;11.20;;;23.30;81.50;;;;;;6267838;27;90092;-67
2023/05/12 12:40:12;;;;;;;12.93;10.93;;;23.40;81.60;;;;;;6261772;27;89053;-67
2023/05/12 12:43:14;;;;;;;17.02;11.32;;;23.30;81.50;;;;;;6274286;27;89067;-67
2023/05/12 12:46:16;;;;;;;13.20;10.65;;;23.40;81.60;;;;;;6267719;27;89190;-68
2023/05/12 12:49:18;;;;;;;13.30;9.70;;;23.40;81.60;;;;;;6284431;27;89041;-67
2023/05/12 12:52:20;;;;;;;11.20;9.38;;;23.30;81.50;;;;;;6257021;27;89023;-67
2023/05/12 12:55:24;;;;;;;9.65;8.48;;;23.30;81.50;;;;;;6275619;27;89165;-68
2023/05/12 12:58:26;;;;;;;11.45;8.75;;;23.30;81.50;;;;;;6283977;27;88300;-68
2023/05/12 13:01:28;;;;;;;10.02;7.97;;;23.30;81.40;;;;;;6279714;27;87974;-68
2023/05/12 13:04:30;;;;;;;9.40;7.93;;;23.30;81.30;;;;;;6268428;27;89037;-68
2023/05/12 13:07:33;;;;;;;9.98;8.35;;;23.30;81.30;;;;;;6258301;27;88993;-68
2023/05/12 13:10:37;;;;;;;8.77;7.40;;;23.30;81.30;;;;;;6289260;27;87989;-68
2023/05/12 13:13:39;;;;;;;8.60;7.20;;;23.30;81.40;;;;;;6268982;27;89090;-67
2023/05/12 13:16:41;;;;;;;9.18;7.50;;;23.30;81.30;;;;;;6278280;27;89054;-67
2023/05/12 13:19:43;;;;;;;8.35;6.85;;;23.30;81.30;;;;;;6265929;27;89172;-67
2023/05/12 13:22:45;;;;;;;7.55;6.32;;;23.30;81.30;;;;;;6286203;27;89093;-67
2023/05/12 13:25:49;;;;;;;8.10;6.03;;;23.30;81.30;;;;;;6280647;27;89081;-68
2023/05/12 13:28:51;;;;;;;7.72;6.18;;;23.30;81.20;;;;;;6281723;27;88318;-68
2023/05/12 13:31:54;;;;;;;8.88;5.78;;;23.30;81.30;;;;;;6278400;27;89074;-68
2023/05/12 13:34:56;;;;;;;7.07;5.50;;;23.30;81.10;;;;;;6280471;27;89062;-68
2023/05/12 13:37:57;;;;;;;7.78;5.25;;;23.30;81.10;;;;;;6258593;27;90063;-67
2023/05/12 13:41:01;;;;;;;6.05;5.10;;;23.30;81.10;;;;;;6283284;27;89229;-67
2023/05/12 13:44:03;;;;;;;5.60;4.90;;;23.40;81.10;;;;;;6289034;27;89120;-67
2023/05/12 13:47:06;;;;;;;5.50;4.75;;;23.40;81.20;;;;;;6286448;27;89073;-67
2023/05/12 13:50:09;;;;;;;6.63;5.40;;;23.40;81.20;;;;;;6266236;27;90226;-68
2023/05/12 13:53:12;;;;;;;6.05;4.57;;;23.40;81.20;;;;;;6289958;27;89021;-67
2023/05/12 13:56:16;;;;;;;5.25;4.50;;;23.30;81.10;;;;;;6277724;27;89064;-68
2023/05/12 13:59:18;;;;;;;6.07;4.40;;;23.40;81.20;;;;;;6297371;27;88787;-68
2023/05/12 14:02:20;;;;;;;4.97;3.95;;;23.40;81.10;;;;;;6286495;27;89133;-69
2023/05/12 14:05:23;;;;;;;5.30;4.00;;;23.30;81.00;;;;;;6276872;27;89060;-69
2023/05/12 14:08:25;;;;;;;4.55;3.90;;;23.40;81.10;;;;;;6278547;27;89962;-69
2023/05/12 14:11:28;;;;;;;5.32;3.85;;;23.40;81.00;;;;;;6277011;27;88854;-68
2023/05/12 14:14:30;;;;;;;5.85;4.22;;;23.40;81.00;;;;;;6275908;27;89055;-68
2023/05/12 14:17:32;;;;;;;5.38;3.80;;;23.30;80.90;;;;;;6273986;27;89644;-67
2023/05/12 14:20:34;;;;;;;5.40;3.80;;;23.40;81.00;;;;;;6270523;27;88280;-68
2023/05/12 14:23:36;;;;;;;5.30;3.65;;;23.40;81.00;;;;;;6281412;27;89034;-67
2023/05/12 14:26:40;;;;;;;3.70;3.30;;;23.30;80.90;;;;;;6268599;27;89077;-70
2023/05/12 14:29:42;;;;;;;4.68;3.47;;;23.30;80.90;;;;;;6266114;27;88370;-69
2023/05/12 14:32:44;;;;;;;5.30;2.97;;;23.30;81.00;;;;;;6273692;27;89059;-69
2023/05/12 14:35:46;;;;;;;4.55;3.20;;;23.30;81.00;;;;;;6282298;27;89092;-69
2023/05/12 14:38:48;;;;;;;6.00;3.13;;;23.40;81.00;;;;;;6275684;27;90065;-69
2023/05/12 14:41:52;;;;;;;3.90;3.38;;;23.30;81.00;;;;;;6286119;27;89033;-67
2023/05/12 14:44:53;;;;;;;4.13;3.10;;;23.30;81.00;;;;;;6286913;27;89268;-69
2023/05/12 14:47:55;;;;;;;3.30;2.70;;;23.30;80.80;;;;;;6282256;27;89133;-69
2023/05/12 14:50:58;;;;;;;3.85;2.97;;;23.30;80.80;;;;;;6287683;27;88994;-70
2023/05/12 14:54:00;;;;;;;4.18;3.22;;;23.40;80.90;;;;;;6279006;27;89147;-69
2023/05/12 14:57:04;;;;;;;2.80;2.50;;;23.30;81.00;;;;;;6266867;27;89099;-69
2023/05/12 15:00:07;;;;;;;4.22;2.95;;;23.30;80.80;;;;;;6293958;27;88488;-68
2023/05/12 15:03:10;;;;;;;3.45;2.70;;;23.30;80.80;;;;;;6301837;27;89070;-69
2023/05/12 15:06:12;;;;;;;5.38;2.80;;;23.30;80.90;;;;;;6272333;27;89232;-69
2023/05/12 15:09:14;;;;;;;3.55;2.67;;;23.30;80.90;;;;;;6277010;27;90031;-69
2023/05/12 15:12:17;;;;;;;3.28;2.55;;;23.30;81.00;;;;;;6283459;27;89150;-69
2023/05/12 15:15:19;;;;;;;3.70;2.40;;;23.30;81.00;;;;;;6282548;27;89181;-68
2023/05/12 15:18:21;;;;;;;3.03;2.58;;;23.30;81.00;;;;;;6272626;27;89242;-70
2023/05/12 15:21:23;;;;;;;2.97;2.38;;;23.30;81.00;;;;;;6270809;27;89075;-70
2023/05/12 15:24:25;;;;;;;2.20;2.00;;;23.30;81.10;;;;;;6263591;27;89211;-70
2023/05/12 15:27:28;;;;;;;3.13;2.42;;;23.30;81.10;;;;;;6283325;27;89313;-70
2023/05/12 15:30:30;;;;;;;3.60;2.42;;;23.30;81.10;;;;;;6266887;27;88404;-70
2023/05/12 15:33:33;;;;;;;4.82;2.40;;;23.30;81.10;;;;;;6272046;27;88336;-70
2023/05/12 15:36:34;;;;;;;4.13;2.67;;;23.30;81.10;;;;;;6270917;27;89196;-70
2023/05/12 15:39:36;;;;;;;4.35;2.50;;;23.30;81.30;;;;;;6271092;27;90050;-70